Impacts TAF Board
For situational awareness. Not to be used for flight planning purposes.
IDs:

KTPA - Tampa Intl Arpt, FL, US

Issued at 2328 UTC 04 Jul 2022
Updated at 2347 UTC 04 Jul 2022
Potential Impact None Slight Moderate High
Time<<05/12Z 05/13Z 05/14Z 05/15Z 05/16Z 05/17Z 05/18Z 05/19Z 05/20Z 05/21Z 05/22Z 05/23Z 06/00Z>>
Type PRVL PRVL PRVL PRVL PRVL PRVL PRVL PRVL PRVL PRVL PRVL PRVL PRVL
VIS >6 >6 >6 >6 >6 >6 >6 >6 >6 >6 >6 >6 >6
CIG 150 150 150 150 150 150 150 40 40 40 40 40 150
Cover BKN BKN BKN BKN BKN BKN BKN BKN BKN BKN BKN BKN BKN
FltCat VFR VFR VFR VFR VFR VFR VFR VFR VFR VFR VFR VFR VFR
WX -- -- -- -- -- -- -- VCTS VCTS VCTS VCTS VCTS --
WDir VRB VRB VRB VRB VRB VRB VRB 260 260 260 260 260 20
WSpd 4 4 4 4 4 4 4 7 7 7 7 7 5
WGst -- -- -- -- -- -- -- -- -- -- -- -- --
WSHgt -- -- -- -- -- -- -- -- -- -- -- -- --
WSDir -- -- -- -- -- -- -- -- -- -- -- -- --
WSSpd -- -- -- -- -- -- -- -- -- -- -- -- --
R01/19
XWnd VRB VRB VRB VRB VRB VRB VRB 7 7 7 7 7 -2
R10/28
XWnd VRB VRB VRB VRB VRB VRB VRB -1 -1 -1 -1 -1 5
Raw TAF
KTPA 042328Z 0500/0606 26007KT P6SM VCTS SCT035CB BKN200
  FM050200 VRB04KT P6SM SCT025 BKN150
  FM051900 26007KT P6SM VCTS BKN040CB
  FM060000 02005KT P6SM SCT030 BKN150
  FM060300 12005KT P6SM SCT120


METAR Board
Radar Display
Forecast Discussion
For situational awareness. Not to be used for flight planning purposes.